ESSV/VBY METAR and TAF weather

Enter ICAO airport designator
Station Type Date Time Source
ESSV METAR 2019/08/19 02:20 UTC NOAA

ESSV 190220Z AUTO 28011KT 9999 FEW010/// SCT021/// 16/15 Q1004


Station Type Date Time Source
ESSV Decoded METAR 2019/08/19 02:20 UTC NOAA

Station name not available
Aug 18, 2019 - 10:20 PM EDT / 2019.08.19 0220 UTC
Wind: from the W (280 degrees) at 13 MPH (11 KT):0
Visibility: greater than 7 mile(s):0
Sky conditions: partly cloudy
Temperature: 60 F (16 C)
Dew Point: 59 F (15 C)
Relative Humidity: 93%
Pressure (altimeter): 29.65 in. Hg (1004 hPa)
ob: ESSV 190220Z AUTO 28011KT 9999 FEW010/// SCT021/// 16/15 Q1004
cycle: 2

Station Type Date Time Source
ESSV TAF 2017/09/20 09:39 UTC NOAA

TAF COR TAF COR ESSV 200840Z 2009/2021 10005KT 9999 BKN030 PROB40 2009/2016 4000 TS SHRA BKN015CB

Example: see airport list